sensor_id;sensor_type;location;lat;lon;timestamp;pressure;altitude;pressure_sealevel;temperature;humidity
14041;BME280;7095;51.388;6.196;2023-04-27T00:01:52;54574.81;;;-145.32;100.00
14041;BME280;7095;51.388;6.196;2023-04-27T00:04:21;54570.84;;;-145.32;100.00
14041;BME280;7095;51.388;6.196;2023-04-27T00:06:50;54558.91;;;-145.32;100.00
14041;BME280;7095;51.388;6.196;2023-04-27T00:09:18;54544.97;;;-145.32;100.00
14041;BME280;7095;51.388;6.196;2023-04-27T00:11:47;54556.91;;;-145.32;100.00
14041;BME280;7095;51.388;6.196;2023-04-27T00:14:15;54592.72;;;-145.32;100.00
14041;BME280;7095;51.388;6.196;2023-04-27T00:16:43;54628.50;;;-145.32;100.00
14041;BME280;7095;51.388;6.196;2023-04-27T00:19:13;54628.50;;;-145.32;100.00
14041;BME280;7095;51.388;6.196;2023-04-27T00:21:42;54580.78;;;-145.32;100.00
14041;BME280;7095;51.388;6.196;2023-04-27T00:24:10;54572.81;;;-145.32;100.00
14041;BME280;7095;51.388;6.196;2023-04-27T00:26:39;54580.78;;;-145.32;100.00
14041;BME280;7095;51.388;6.196;2023-04-27T00:29:07;54600.66;;;-145.32;100.00
14041;BME280;7095;51.388;6.196;2023-04-27T00:31:38;54656.34;;;-145.32;100.00
14041;BME280;7095;51.388;6.196;2023-04-27T00:34:06;54622.53;;;-145.32;100.00
14041;BME280;7095;51.388;6.196;2023-04-27T00:36:36;54644.41;;;-145.32;100.00
14041;BME280;7095;51.388;6.196;2023-04-27T00:39:05;54614.59;;;-145.32;100.00
14041;BME280;7095;51.388;6.196;2023-04-27T00:41:36;54664.31;;;-145.32;100.00
14041;BME280;7095;51.388;6.196;2023-04-27T00:44:04;54688.16;;;-145.32;100.00
14041;BME280;7095;51.388;6.196;2023-04-27T00:46:33;54716.00;;;-145.32;100.00
14041;BME280;7095;51.388;6.196;2023-04-27T00:49:02;54716.00;;;-145.32;100.00
14041;BME280;7095;51.388;6.196;2023-04-27T00:51:31;54759.78;;;-145.32;100.00
14041;BME280;7095;51.388;6.196;2023-04-27T00:54:01;54753.81;;;-145.32;100.00
14041;BME280;7095;51.388;6.196;2023-04-27T00:56:31;54720.00;;;-145.32;100.00
14041;BME280;7095;51.388;6.196;2023-04-27T00:58:59;54779.66;;;-145.32;100.00
14041;BME280;7095;51.388;6.196;2023-04-27T01:01:28;54733.91;;;-145.32;100.00
14041;BME280;7095;51.388;6.196;2023-04-27T01:03:57;54731.94;;;-145.32;100.00
14041;BME280;7095;51.388;6.196;2023-04-27T01:06:26;54755.78;;;-145.32;100.00
14041;BME280;7095;51.388;6.196;2023-04-27T01:08:55;54747.84;;;-145.32;100.00
14041;BME280;7095;51.388;6.196;2023-04-27T01:11:25;54767.72;;;-145.32;100.00
14041;BME280;7095;51.388;6.196;2023-04-27T01:13:54;54739.88;;;-145.32;100.00
14041;BME280;7095;51.388;6.196;2023-04-27T01:16:23;54727.94;;;-145.32;100.00
14041;BME280;7095;51.388;6.196;2023-04-27T01:18:52;54767.72;;;-145.32;100.00
14041;BME280;7095;51.388;6.196;2023-04-27T01:21:23;54787.63;;;-145.32;100.00
14041;BME280;7095;51.388;6.196;2023-04-27T01:23:53;54755.78;;;-145.32;100.00
14041;BME280;7095;51.388;6.196;2023-04-27T01:26:22;54813.47;;;-145.32;100.00
14041;BME280;7095;51.388;6.196;2023-04-27T01:28:50;54775.69;;;-145.32;100.00
14041;BME280;7095;51.388;6.196;2023-04-27T01:31:19;54733.91;;;-145.32;100.00
14041;BME280;7095;51.388;6.196;2023-04-27T01:33:47;54781.66;;;-145.32;100.00
14041;BME280;7095;51.388;6.196;2023-04-27T01:36:16;54769.72;;;-145.32;100.00
14041;BME280;7095;51.388;6.196;2023-04-27T01:38:44;54787.63;;;-145.32;100.00
14041;BME280;7095;51.388;6.196;2023-04-27T01:41:14;54855.22;;;-145.32;100.00
14041;BME280;7095;51.388;6.196;2023-04-27T01:43:43;54849.25;;;-145.32;100.00
14041;BME280;7095;51.388;6.196;2023-04-27T01:46:13;54855.22;;;-145.32;100.00
14041;BME280;7095;51.388;6.196;2023-04-27T01:48:42;54891.03;;;-145.32;100.00
14041;BME280;7095;51.388;6.196;2023-04-27T01:51:13;54853.25;;;-145.32;100.00
14041;BME280;7095;51.388;6.196;2023-04-27T01:53:43;54839.31;;;-145.32;100.00
14041;BME280;7095;51.388;6.196;2023-04-27T01:56:12;54879.09;;;-145.32;100.00
14041;BME280;7095;51.388;6.196;2023-04-27T01:58:42;54899.00;;;-145.32;100.00
14041;BME280;7095;51.388;6.196;2023-04-27T02:01:10;54879.09;;;-145.32;100.00
14041;BME280;7095;51.388;6.196;2023-04-27T02:03:38;54875.13;;;-145.32;100.00
14041;BME280;7095;51.388;6.196;2023-04-27T02:06:08;54895.00;;;-145.32;100.00
14041;BME280;7095;51.388;6.196;2023-04-27T02:08:38;54922.84;;;-145.32;100.00
14041;BME280;7095;51.388;6.196;2023-04-27T02:11:07;54809.50;;;-145.32;100.00
14041;BME280;7095;51.388;6.196;2023-04-27T02:13:36;54891.03;;;-145.32;100.00
14041;BME280;7095;51.388;6.196;2023-04-27T02:16:06;54900.97;;;-145.32;100.00
14041;BME280;7095;51.388;6.196;2023-04-27T02:18:35;54916.88;;;-145.32;100.00
14041;BME280;7095;51.388;6.196;2023-04-27T02:21:07;54924.84;;;-145.32;100.00
14041;BME280;7095;51.388;6.196;2023-04-27T02:23:36;54938.75;;;-145.32;100.00
14041;BME280;7095;51.388;6.196;2023-04-27T02:26:05;54887.06;;;-145.32;100.00
14041;BME280;7095;51.388;6.196;2023-04-27T02:28:36;54891.03;;;-145.32;100.00
14041;BME280;7095;51.388;6.196;2023-04-27T02:31:06;54910.91;;;-145.32;100.00
14041;BME280;7095;51.388;6.196;2023-04-27T02:33:35;54932.78;;;-145.32;100.00
14041;BME280;7095;51.388;6.196;2023-04-27T02:36:04;54902.97;;;-145.32;100.00
14041;BME280;7095;51.388;6.196;2023-04-27T02:38:33;54914.91;;;-145.32;100.00
14041;BME280;7095;51.388;6.196;2023-04-27T02:41:02;54948.72;;;-145.32;100.00
14041;BME280;7095;51.388;6.196;2023-04-27T02:43:32;54984.50;;;-145.32;100.00
14041;BME280;7095;51.388;6.196;2023-04-27T02:46:04;55024.28;;;-145.32;100.00
14041;BME280;7095;51.388;6.196;2023-04-27T02:48:35;54980.53;;;-145.32;100.00
14041;BME280;7095;51.388;6.196;2023-04-27T02:51:04;54970.59;;;-145.32;100.00
14041;BME280;7095;51.388;6.196;2023-04-27T02:53:33;55024.28;;;-145.32;100.00
14041;BME280;7095;51.388;6.196;2023-04-27T02:56:02;54976.56;;;-145.32;100.00
14041;BME280;7095;51.388;6.196;2023-04-27T02:58:31;55054.13;;;-145.32;100.00
14041;BME280;7095;51.388;6.196;2023-04-27T03:00:59;55109.81;;;-145.32;100.00
14041;BME280;7095;51.388;6.196;2023-04-27T03:03:28;55081.97;;;-145.32;100.00
14041;BME280;7095;51.388;6.196;2023-04-27T03:05:58;55036.22;;;-145.32;100.00
14041;BME280;7095;51.388;6.196;2023-04-27T03:08:27;55028.25;;;-145.32;100.00
14041;BME280;7095;51.388;6.196;2023-04-27T03:10:57;55062.09;;;-145.32;100.00
14041;BME280;7095;51.388;6.196;2023-04-27T03:13:25;55107.81;;;-145.32;100.00
14041;BME280;7095;51.388;6.196;2023-04-27T03:15:54;55129.69;;;-145.32;100.00
14041;BME280;7095;51.388;6.196;2023-04-27T03:18:22;55157.56;;;-145.32;100.00
14041;BME280;7095;51.388;6.196;2023-04-27T03:20:51;55115.78;;;-145.32;100.00
14041;BME280;7095;51.388;6.196;2023-04-27T03:23:21;55133.69;;;-145.32;100.00
14041;BME280;7095;51.388;6.196;2023-04-27T03:25:51;55167.50;;;-145.32;100.00
14041;BME280;7095;51.388;6.196;2023-04-27T03:28:19;55099.88;;;-145.32;100.00
14041;BME280;7095;51.388;6.196;2023-04-27T03:30:48;55093.91;;;-145.32;100.00
14041;BME280;7095;51.388;6.196;2023-04-27T03:33:16;55113.78;;;-145.32;100.00
14041;BME280;7095;51.388;6.196;2023-04-27T03:35:53;55046.16;;;-145.32;100.00
14041;BME280;7095;51.388;6.196;2023-04-27T03:38:23;55048.16;;;-145.32;100.00
14041;BME280;7095;51.388;6.196;2023-04-27T03:40:52;55137.66;;;-145.32;100.00
14041;BME280;7095;51.388;6.196;2023-04-27T03:43:23;55129.69;;;-145.32;100.00
14041;BME280;7095;51.388;6.196;2023-04-27T03:45:51;55089.94;;;-145.32;100.00
14041;BME280;7095;51.388;6.196;2023-04-27T03:48:20;55173.47;;;-145.32;100.00
14041;BME280;7095;51.388;6.196;2023-04-27T03:50:51;55113.78;;;-145.32;100.00
14041;BME280;7095;51.388;6.196;2023-04-27T03:53:19;55099.88;;;-145.32;100.00
14041;BME280;7095;51.388;6.196;2023-04-27T03:55:50;55054.13;;;-145.32;100.00
14041;BME280;7095;51.388;6.196;2023-04-27T03:58:19;55129.69;;;-145.32;100.00
14041;BME280;7095;51.388;6.196;2023-04-27T04:01:06;55213.25;;;-145.32;100.00
14041;BME280;7095;51.388;6.196;2023-04-27T04:03:37;55145.63;;;-145.32;100.00
14041;BME280;7095;51.388;6.196;2023-04-27T04:06:07;55101.84;;;-145.32;100.00
14041;BME280;7095;51.388;6.196;2023-04-27T04:08:36;55155.56;;;-145.32;100.00
14041;BME280;7095;51.388;6.196;2023-04-27T04:11:06;55123.75;;;-145.32;100.00
14041;BME280;7095;51.388;6.196;2023-04-27T04:13:35;55099.88;;;-145.32;100.00
14041;BME280;7095;51.388;6.196;2023-04-27T04:16:05;55145.63;;;-145.32;100.00
14041;BME280;7095;51.388;6.196;2023-04-27T04:18:35;55115.78;;;-145.32;100.00
14041;BME280;7095;51.388;6.196;2023-04-27T04:21:05;55133.69;;;-145.32;100.00
14041;BME280;7095;51.388;6.196;2023-04-27T04:23:33;55129.69;;;-145.32;100.00
14041;BME280;7095;51.388;6.196;2023-04-27T04:26:02;55097.88;;;-145.32;100.00
14041;BME280;7095;51.388;6.196;2023-04-27T04:28:35;55143.63;;;-145.32;100.00
14041;BME280;7095;51.388;6.196;2023-04-27T04:31:03;55141.63;;;-145.32;100.00
14041;BME280;7095;51.388;6.196;2023-04-27T04:33:32;55115.78;;;-145.32;100.00
14041;BME280;7095;51.388;6.196;2023-04-27T04:36:02;55213.25;;;-145.32;100.00
14041;BME280;7095;51.388;6.196;2023-04-27T04:38:32;55251.03;;;-145.32;100.00
14041;BME280;7095;51.388;6.196;2023-04-27T04:41:01;55298.78;;;-145.32;100.00
14041;BME280;7095;51.388;6.196;2023-04-27T04:43:32;55388.28;;;-145.32;100.00
14041;BME280;7095;51.388;6.196;2023-04-27T04:46:05;55426.09;;;-145.32;100.00
14041;BME280;7095;51.388;6.196;2023-04-27T04:48:33;55461.88;;;-145.32;100.00
14041;BME280;7095;51.388;6.196;2023-04-27T04:51:04;55491.72;;;-145.32;100.00
14041;BME280;7095;51.388;6.196;2023-04-27T04:53:33;55555.38;;;-145.32;100.00
14041;BME280;7095;51.388;6.196;2023-04-27T04:56:07;55577.25;;;-145.32;100.00
14041;BME280;7095;51.388;6.196;2023-04-27T04:58:37;55589.19;;;-145.32;100.00
14041;BME280;7095;51.388;6.196;2023-04-27T05:01:07;55642.91;;;-145.32;100.00
14041;BME280;7095;51.388;6.196;2023-04-27T05:03:36;55611.09;;;-145.32;100.00
14041;BME280;7095;51.388;6.196;2023-04-27T05:06:05;55648.88;;;-145.32;100.00
14041;BME280;7095;51.388;6.196;2023-04-27T05:08:34;55770.22;;;-145.32;100.00
14041;BME280;7095;51.388;6.196;2023-04-27T05:11:03;55800.06;;;-145.32;100.00
14041;BME280;7095;51.388;6.196;2023-04-27T05:13:32;55861.75;;;-145.32;100.00
14041;BME280;7095;51.388;6.196;2023-04-27T05:16:03;55951.28;;;-145.32;100.00
14041;BME280;7095;51.388;6.196;2023-04-27T05:18:34;56152.22;;;-145.32;100.00
14041;BME280;7095;51.388;6.196;2023-04-27T05:21:03;56184.06;;;-145.32;100.00
14041;BME280;7095;51.388;6.196;2023-04-27T05:23:32;56271.59;;;-145.32;100.00
14041;BME280;7095;51.388;6.196;2023-04-27T05:26:10;56339.25;;;-145.32;100.00
14041;BME280;7095;51.388;6.196;2023-04-27T05:28:38;56434.75;;;-145.32;100.00
14041;BME280;7095;51.388;6.196;2023-04-27T05:31:07;56440.72;;;-145.32;100.00
14041;BME280;7095;51.388;6.196;2023-04-27T05:33:37;56538.22;;;-145.32;100.00
14041;BME280;7095;51.388;6.196;2023-04-27T05:36:06;56685.47;;;-145.32;100.00
14041;BME280;7095;51.388;6.196;2023-04-27T05:38:35;56767.06;;;-145.32;100.00
14041;BME280;7095;51.388;6.196;2023-04-27T05:41:06;56920.28;;;-145.32;100.00
14041;BME280;7095;51.388;6.196;2023-04-27T05:43:35;56870.53;;;-145.32;100.00
14041;BME280;7095;51.388;6.196;2023-04-27T05:46:04;56769.06;;;-145.32;100.00
14041;BME280;7095;51.388;6.196;2023-04-27T05:48:33;56665.56;;;-145.32;100.00
14041;BME280;7095;51.388;6.196;2023-04-27T05:51:04;56605.88;;;-145.32;100.00
14041;BME280;7095;51.388;6.196;2023-04-27T05:53:33;56741.19;;;-145.32;100.00
14041;BME280;7095;51.388;6.196;2023-04-27T05:56:02;56514.34;;;-145.32;100.00
14041;BME280;7095;51.388;6.196;2023-04-27T05:58:32;56548.16;;;-145.32;100.00
14041;BME280;7095;51.388;6.196;2023-04-27T06:01:01;56414.84;;;-145.32;100.00
14041;BME280;7095;51.388;6.196;2023-04-27T06:03:30;56106.44;;;-145.32;100.00
14041;BME280;7095;51.388;6.196;2023-04-27T06:06:03;56172.13;;;-145.32;100.00
14041;BME280;7095;51.388;6.196;2023-04-27T06:08:32;56164.16;;;-145.32;100.00
14041;BME280;7095;51.388;6.196;2023-04-27T06:11:03;56042.78;;;-145.32;100.00
14041;BME280;7095;51.388;6.196;2023-04-27T06:13:32;55734.41;;;-145.32;100.00
14041;BME280;7095;51.388;6.196;2023-04-27T06:16:01;55708.56;;;-145.32;100.00
14041;BME280;7095;51.388;6.196;2023-04-27T06:18:30;55845.81;;;-145.32;100.00
14041;BME280;7095;51.388;6.196;2023-04-27T06:20:58;55664.78;;;-145.32;100.00
14041;BME280;7095;51.388;6.196;2023-04-27T06:23:29;55654.84;;;-145.32;100.00
14041;BME280;7095;51.388;6.196;2023-04-27T06:25:58;55674.75;;;-145.32;100.00
14041;BME280;7095;51.388;6.196;2023-04-27T06:28:28;55615.06;;;-145.32;100.00
14041;BME280;7095;51.388;6.196;2023-04-27T06:30:57;55625.00;;;-145.32;100.00
14041;BME280;7095;51.388;6.196;2023-04-27T06:33:26;55527.53;;;-145.32;100.00
14041;BME280;7095;51.388;6.196;2023-04-27T06:35:54;55591.19;;;-145.32;100.00
14041;BME280;7095;51.388;6.196;2023-04-27T06:38:23;55555.38;;;-145.32;100.00
14041;BME280;7095;51.388;6.196;2023-04-27T06:41:01;55352.47;;;-145.32;100.00
14041;BME280;7095;51.388;6.196;2023-04-27T06:43:30;55398.22;;;-145.32;100.00
14041;BME280;7095;51.388;6.196;2023-04-27T06:45:58;55231.16;;;-145.32;100.00
14041;BME280;7095;51.388;6.196;2023-04-27T06:48:27;55282.88;;;-145.32;100.00
14041;BME280;7095;51.388;6.196;2023-04-27T06:50:56;55380.34;;;-145.32;100.00
14041;BME280;7095;51.388;6.196;2023-04-27T06:53:24;55127.72;;;-145.32;100.00
14041;BME280;7095;51.388;6.196;2023-04-27T06:55:53;55143.63;;;-145.32;100.00
14041;BME280;7095;51.388;6.196;2023-04-27T06:58:23;55074.00;;;-145.32;100.00
14041;BME280;7095;51.388;6.196;2023-04-27T07:00:52;55046.16;;;-145.32;100.00
14041;BME280;7095;51.388;6.196;2023-04-27T07:03:21;54958.66;;;-145.32;100.00
14041;BME280;7095;51.388;6.196;2023-04-27T07:05:49;54791.59;;;-145.32;100.00
14041;BME280;7095;51.388;6.196;2023-04-27T07:08:19;54650.38;;;-145.32;100.00
14041;BME280;7095;51.388;6.196;2023-04-27T07:10:47;54716.00;;;-145.32;100.00
14041;BME280;7095;51.388;6.196;2023-04-27T07:13:16;54720.00;;;-145.32;100.00
14041;BME280;7095;51.388;6.196;2023-04-27T07:15:45;54763.75;;;-145.32;100.00
14041;BME280;7095;51.388;6.196;2023-04-27T07:18:15;54578.78;;;-145.32;100.00
14041;BME280;7095;51.388;6.196;2023-04-27T07:20:43;54493.28;;;-145.32;100.00
14041;BME280;7095;51.388;6.196;2023-04-27T07:23:12;54483.34;;;-145.32;100.00
14041;BME280;7095;51.388;6.196;2023-04-27T07:25:40;54525.09;;;-145.32;100.00
14041;BME280;7095;51.388;6.196;2023-04-27T07:28:09;54546.97;;;-145.32;100.00
14041;BME280;7095;51.388;6.196;2023-04-27T07:30:38;54511.19;;;-145.32;100.00
14041;BME280;7095;51.388;6.196;2023-04-27T07:33:09;54364.03;;;-145.32;100.00
14041;BME280;7095;51.388;6.196;2023-04-27T07:35:38;54358.06;;;-145.32;100.00
14041;BME280;7095;51.388;6.196;2023-04-27T07:38:06;54328.22;;;-145.32;100.00
14041;BME280;7095;51.388;6.196;2023-04-27T07:40:35;54340.16;;;-145.32;100.00
14041;BME280;7095;51.388;6.196;2023-04-27T07:43:03;54290.44;;;-145.32;100.00
14041;BME280;7095;51.388;6.196;2023-04-27T07:45:32;54149.25;;;-145.32;100.00
14041;BME280;7095;51.388;6.196;2023-04-27T07:48:00;54157.22;;;-145.32;100.00
14041;BME280;7095;51.388;6.196;2023-04-27T07:50:32;54137.34;;;-145.32;100.00
14041;BME280;7095;51.388;6.196;2023-04-27T07:53:00;54147.28;;;-145.32;100.00
14041;BME280;7095;51.388;6.196;2023-04-27T07:55:30;54139.31;;;-145.32;100.00
14041;BME280;7095;51.388;6.196;2023-04-27T07:57:58;54119.44;;;-145.32;100.00
14041;BME280;7095;51.388;6.196;2023-04-27T08:00:27;54129.38;;;-145.32;100.00
14041;BME280;7095;51.388;6.196;2023-04-27T08:02:55;54075.69;;;-145.32;100.00
14041;BME280;7095;51.388;6.196;2023-04-27T08:05:25;54065.75;;;-145.32;100.00
14041;BME280;7095;51.388;6.196;2023-04-27T08:07:55;54067.75;;;-145.32;100.00
14041;BME280;7095;51.388;6.196;2023-04-27T08:10:24;54024.00;;;-145.32;100.00
14041;BME280;7095;51.388;6.196;2023-04-27T08:12:53;54063.75;;;-145.32;100.00
14041;BME280;7095;51.388;6.196;2023-04-27T08:15:22;53972.28;;;-145.32;100.00
14041;BME280;7095;51.388;6.196;2023-04-27T08:17:50;53954.41;;;-145.32;100.00
14041;BME280;7095;51.388;6.196;2023-04-27T08:20:19;53944.47;;;-145.32;100.00
14041;BME280;7095;51.388;6.196;2023-04-27T08:22:49;53892.75;;;-145.32;100.00
14041;BME280;7095;51.388;6.196;2023-04-27T08:25:20;53878.84;;;-145.32;100.00
14041;BME280;7095;51.388;6.196;2023-04-27T08:27:48;53894.75;;;-145.32;100.00
14041;BME280;7095;51.388;6.196;2023-04-27T08:30:17;53908.66;;;-145.32;100.00
14041;BME280;7095;51.388;6.196;2023-04-27T08:32:46;53821.19;;;-145.32;100.00
14041;BME280;7095;51.388;6.196;2023-04-27T08:35:15;53839.06;;;-145.32;100.00
14041;BME280;7095;51.388;6.196;2023-04-27T08:37:44;53827.16;;;-145.32;100.00
14041;BME280;7095;51.388;6.196;2023-04-27T08:40:13;53821.19;;;-145.32;100.00
14041;BME280;7095;51.388;6.196;2023-04-27T08:42:53;53805.28;;;-145.32;100.00
14041;BME280;7095;51.388;6.196;2023-04-27T08:45:23;53797.31;;;-145.32;100.00
14041;BME280;7095;51.388;6.196;2023-04-27T08:47:52;53805.28;;;-145.32;100.00
14041;BME280;7095;51.388;6.196;2023-04-27T08:50:21;53791.34;;;-145.32;100.00
14041;BME280;7095;51.388;6.196;2023-04-27T08:52:50;53725.75;;;-145.32;100.00
14041;BME280;7095;51.388;6.196;2023-04-27T08:55:21;53729.72;;;-145.32;100.00
14041;BME280;7095;51.388;6.196;2023-04-27T08:57:55;53753.59;;;-145.32;100.00
14041;BME280;7095;51.388;6.196;2023-04-27T09:00:25;53735.69;;;-145.32;100.00
14041;BME280;7095;51.388;6.196;2023-04-27T09:02:54;53715.81;;;-145.32;100.00
14041;BME280;7095;51.388;6.196;2023-04-27T09:05:23;53689.97;;;-145.32;100.00
14041;BME280;7095;51.388;6.196;2023-04-27T09:07:55;53697.91;;;-145.32;100.00
14041;BME280;7095;51.388;6.196;2023-04-27T09:10:25;53689.97;;;-145.32;100.00
14041;BME280;7095;51.388;6.196;2023-04-27T09:12:58;53713.81;;;-145.32;100.00
14041;BME280;7095;51.388;6.196;2023-04-27T09:15:27;53699.91;;;-145.32;100.00
14041;BME280;7095;51.388;6.196;2023-04-27T09:17:56;53691.94;;;-145.32;100.00
14041;BME280;7095;51.388;6.196;2023-04-27T09:20:25;53640.25;;;-145.32;99.95
14041;BME280;7095;51.388;6.196;2023-04-27T09:22:54;53646.22;;;-145.32;95.62
14041;BME280;7095;51.388;6.196;2023-04-27T09:25:26;53658.16;;;-145.32;88.01
14041;BME280;7095;51.388;6.196;2023-04-27T09:27:58;53640.25;;;-145.32;84.13
14041;BME280;7095;51.388;6.196;2023-04-27T09:30:28;53634.28;;;-145.32;78.52
14041;BME280;7095;51.388;6.196;2023-04-27T09:32:58;53626.34;;;-145.32;79.14
14041;BME280;7095;51.388;6.196;2023-04-27T09:35:29;53648.22;;;-145.32;77.32
14041;BME280;7095;51.388;6.196;2023-04-27T09:37:59;53610.44;;;-145.32;75.14
14041;BME280;7095;51.388;6.196;2023-04-27T09:40:28;53614.41;;;-145.32;75.97
14041;BME280;7095;51.388;6.196;2023-04-27T09:42:59;53602.47;;;-145.32;73.00
14041;BME280;7095;51.388;6.196;2023-04-27T09:45:28;53638.28;;;-145.32;78.67
14041;BME280;7095;51.388;6.196;2023-04-27T09:47:57;53568.69;;;-145.32;71.66
14041;BME280;7095;51.388;6.196;2023-04-27T09:50:27;53582.59;;;-145.32;68.22
14041;BME280;7095;51.388;6.196;2023-04-27T09:52:56;53592.53;;;-145.32;63.79
14041;BME280;7095;51.388;6.196;2023-04-27T09:55:29;53594.53;;;-145.32;61.68
14041;BME280;7095;51.388;6.196;2023-04-27T09:58:14;53582.59;;;-145.32;59.66
14041;BME280;7095;51.388;6.196;2023-04-27T10:00:55;53554.78;;;-145.32;56.33
14041;BME280;7095;51.388;6.196;2023-04-27T10:03:32;53586.56;;;-145.32;57.60
14041;BME280;7095;51.388;6.196;2023-04-27T10:09:19;53548.81;;;-145.32;57.51
14041;BME280;7095;51.388;6.196;2023-04-27T10:11:51;53570.69;;;-145.32;57.39
14041;BME280;7095;51.388;6.196;2023-04-27T10:14:22;53558.75;;;-145.32;58.20
14041;BME280;7095;51.388;6.196;2023-04-27T10:16:53;53562.72;;;-145.32;53.93
14041;BME280;7095;51.388;6.196;2023-04-27T10:19:24;53554.78;;;-145.32;55.14
14041;BME280;7095;51.388;6.196;2023-04-27T10:21:54;53534.88;;;-145.32;55.69
14041;BME280;7095;51.388;6.196;2023-04-27T10:24:33;53542.84;;;-145.32;53.42
14041;BME280;7095;51.388;6.196;2023-04-27T10:27:04;53534.88;;;-145.32;54.09
14041;BME280;7095;51.388;6.196;2023-04-27T10:29:38;53520.97;;;-145.32;53.51
14041;BME280;7095;51.388;6.196;2023-04-27T10:32:10;53511.03;;;-145.32;52.66
14041;BME280;7095;51.388;6.196;2023-04-27T10:34:39;53507.06;;;-145.32;51.61
14041;BME280;7095;51.388;6.196;2023-04-27T10:37:10;53542.84;;;-145.32;51.83
14041;BME280;7095;51.388;6.196;2023-04-27T10:39:42;53493.13;;;-145.32;51.50
14041;BME280;7095;51.388;6.196;2023-04-27T10:42:26;53495.13;;;-145.32;49.87
14041;BME280;7095;51.388;6.196;2023-04-27T10:44:57;53515.00;;;-145.32;52.49
14041;BME280;7095;51.388;6.196;2023-04-27T10:47:35;53473.25;;;-145.32;47.24
14041;BME280;7095;51.388;6.196;2023-04-27T10:50:07;53513.03;;;-145.32;50.54
14041;BME280;7095;51.388;6.196;2023-04-27T10:52:39;53491.16;;;-145.32;50.78
14041;BME280;7095;51.388;6.196;2023-04-27T10:55:15;53457.34;;;-145.32;48.84
14041;BME280;7095;51.388;6.196;2023-04-27T10:57:48;53489.16;;;-145.32;50.52
14041;BME280;7095;51.388;6.196;2023-04-27T11:00:26;53483.19;;;-145.32;46.90
14041;BME280;7095;51.388;6.196;2023-04-27T11:02:56;53471.28;;;-145.32;48.26
14041;BME280;7095;51.388;6.196;2023-04-27T11:05:26;53463.31;;;-145.32;47.48
14041;BME280;7095;51.388;6.196;2023-04-27T11:08:06;53515.00;;;-145.32;47.15
14041;BME280;7095;51.388;6.196;2023-04-27T11:10:37;53447.41;;;-145.32;48.66
14041;BME280;7095;51.388;6.196;2023-04-27T11:13:08;53483.19;;;-145.32;48.21
14041;BME280;7095;51.388;6.196;2023-04-27T11:15:47;53509.03;;;-145.32;46.98
14041;BME280;7095;51.388;6.196;2023-04-27T11:18:18;53459.34;;;-145.32;47.08
14041;BME280;7095;51.388;6.196;2023-04-27T11:20:48;53530.91;;;-145.32;47.18
14041;BME280;7095;51.388;6.196;2023-04-27T11:23:24;53483.19;;;-145.32;45.62
14041;BME280;7095;51.388;6.196;2023-04-27T11:25:55;53495.13;;;-145.32;46.20
14041;BME280;7095;51.388;6.196;2023-04-27T11:28:24;53483.19;;;-145.32;45.58
14041;BME280;7095;51.388;6.196;2023-04-27T11:30:58;53485.19;;;-145.32;44.27
14041;BME280;7095;51.388;6.196;2023-04-27T11:33:27;53491.16;;;-145.32;44.25
14041;BME280;7095;51.388;6.196;2023-04-27T11:35:56;53495.13;;;-145.32;45.06
14041;BME280;7095;51.388;6.196;2023-04-27T11:38:25;53473.25;;;-145.32;45.92
14041;BME280;7095;51.388;6.196;2023-04-27T11:41:02;53483.19;;;-145.32;44.32
14041;BME280;7095;51.388;6.196;2023-04-27T11:43:32;53487.19;;;-145.32;46.30
14041;BME280;7095;51.388;6.196;2023-04-27T11:46:05;53451.38;;;-145.32;44.65
14041;BME280;7095;51.388;6.196;2023-04-27T11:48:37;53437.47;;;-145.32;46.12
14041;BME280;7095;51.388;6.196;2023-04-27T11:51:09;53467.28;;;-145.32;44.60
14041;BME280;7095;51.388;6.196;2023-04-27T11:53:38;53439.47;;;-145.32;45.48
14041;BME280;7095;51.388;6.196;2023-04-27T11:56:09;53435.47;;;-145.32;44.67
14041;BME280;7095;51.388;6.196;2023-04-27T11:58:38;53421.56;;;-145.32;45.33
14041;BME280;7095;51.388;6.196;2023-04-27T12:01:10;53443.44;;;-145.32;45.53
14041;BME280;7095;51.388;6.196;2023-04-27T12:03:39;53459.34;;;-145.32;44.06
14041;BME280;7095;51.388;6.196;2023-04-27T12:06:08;53417.59;;;-145.32;44.70
14041;BME280;7095;51.388;6.196;2023-04-27T12:08:58;53395.72;;;-145.32;44.97
14041;BME280;7095;51.388;6.196;2023-04-27T12:11:27;53365.91;;;-145.32;44.92
14041;BME280;7095;51.388;6.196;2023-04-27T12:13:56;53363.91;;;-145.32;43.71
14041;BME280;7095;51.388;6.196;2023-04-27T12:16:26;53328.13;;;-145.32;43.55
14041;BME280;7095;51.388;6.196;2023-04-27T12:18:55;53320.19;;;-145.32;42.87
14041;BME280;7095;51.388;6.196;2023-04-27T12:21:24;53320.19;;;-145.32;41.79
14041;BME280;7095;51.388;6.196;2023-04-27T12:23:52;53308.25;;;-145.32;41.58
14041;BME280;7095;51.388;6.196;2023-04-27T12:26:21;53296.31;;;-145.32;40.69
14041;BME280;7095;51.388;6.196;2023-04-27T12:28:50;53312.22;;;-145.32;39.91
14041;BME280;7095;51.388;6.196;2023-04-27T12:31:19;53268.50;;;-145.32;39.02
14041;BME280;7095;51.388;6.196;2023-04-27T12:33:55;53292.34;;;-145.32;38.18
14041;BME280;7095;51.388;6.196;2023-04-27T12:36:23;53268.50;;;-145.32;37.48
14041;BME280;7095;51.388;6.196;2023-04-27T12:38:57;53284.41;;;-145.32;36.33
14041;BME280;7095;51.388;6.196;2023-04-27T12:41:26;53292.34;;;-145.32;37.20
14041;BME280;7095;51.388;6.196;2023-04-27T12:43:56;53290.38;;;-145.32;38.02
14041;BME280;7095;51.388;6.196;2023-04-27T12:46:24;53242.66;;;-145.32;37.86
14041;BME280;7095;51.388;6.196;2023-04-27T12:48:54;53264.53;;;-145.32;37.68
14041;BME280;7095;51.388;6.196;2023-04-27T12:51:23;53254.59;;;-145.32;37.05
14041;BME280;7095;51.388;6.196;2023-04-27T12:53:52;53268.50;;;-145.32;36.53
14041;BME280;7095;51.388;6.196;2023-04-27T12:56:21;53292.34;;;-145.32;36.87
14041;BME280;7095;51.388;6.196;2023-04-27T12:58:50;53268.50;;;-145.32;36.33
14041;BME280;7095;51.388;6.196;2023-04-27T13:01:18;53272.47;;;-145.32;36.25